createdAt,value
2022-12-23T00:00:25.668Z,8.86
2022-12-23T00:03:20.837Z,8.65
2022-12-23T00:05:53.161Z,8.74
2022-12-23T00:08:27.312Z,8.73
2022-12-23T00:11:08.251Z,8.82
2022-12-23T00:13:53.291Z,8.61
2022-12-23T00:16:25.859Z,8.91
2022-12-23T00:19:01.329Z,8.65
2022-12-23T00:21:33.651Z,8.67
2022-12-23T00:24:06.379Z,8.72
2022-12-23T00:26:38.558Z,8.69
2022-12-23T00:29:11.251Z,8.83
2022-12-23T00:31:43.531Z,8.85
2022-12-23T00:34:18.696Z,8.76
2022-12-23T00:36:51.072Z,8.77
2022-12-23T00:39:35.729Z,8.64
2022-12-23T00:42:39.667Z,8.74
2022-12-23T00:45:18.631Z,9.21
2022-12-23T00:48:03.855Z,8.89
2022-12-23T00:50:40.888Z,9.03
2022-12-23T00:53:13.069Z,8.63
2022-12-23T00:55:46.248Z,8.74
2022-12-23T00:58:18.315Z,8.85
2022-12-23T01:01:15.691Z,8.69
2022-12-23T01:04:00.122Z,9.19
2022-12-23T01:06:35.782Z,8.98
2022-12-23T01:09:07.931Z,8.49
2022-12-23T01:11:40.334Z,8.54
2022-12-23T01:14:13.082Z,8.66
2022-12-23T01:16:45.633Z,8.67
2022-12-23T01:19:17.822Z,8.68
2022-12-23T01:21:52.849Z,8.66
2022-12-23T02:56:56.237Z,8.66
2022-12-23T02:59:32.724Z,8.52
2022-12-23T03:02:05.669Z,8.65
2022-12-23T03:04:38.639Z,8.51
2022-12-23T03:07:18.928Z,8.82
2022-12-23T03:10:06.628Z,8.84
2022-12-23T03:13:03.825Z,8.55
2022-12-23T03:15:44.896Z,8.49
2022-12-23T03:18:26.891Z,8.96
2022-12-23T03:21:06.850Z,8.69
2022-12-23T03:23:43.936Z,8.58
2022-12-23T03:26:20.969Z,8.85
2022-12-23T03:29:15.714Z,8.78
2022-12-23T03:31:48.794Z,8.70
2022-12-23T03:34:25.437Z,8.71
2022-12-23T03:37:00.658Z,8.72
2022-12-23T03:39:36.171Z,8.87
2022-12-23T03:42:18.428Z,8.82
2022-12-23T03:45:36.286Z,8.94
2022-12-23T03:47:54.002Z,8.89
2022-12-23T03:50:27.950Z,8.89
2022-12-23T03:53:02.976Z,8.98
2022-12-23T03:55:39.807Z,9.03
2022-12-23T03:58:19.496Z,8.77
2022-12-23T04:01:00.888Z,8.73
2022-12-23T04:03:40.084Z,8.87
2022-12-23T04:06:18.595Z,8.78
2022-12-23T04:08:52.916Z,8.56
2022-12-23T04:11:25.297Z,8.56
2022-12-23T04:13:57.407Z,8.54
2022-12-23T04:16:33.038Z,8.68
2022-12-23T04:19:05.098Z,8.49
2022-12-23T04:21:37.177Z,8.94
2022-12-23T04:24:09.998Z,8.77
2022-12-23T04:26:42.234Z,8.94
2022-12-23T04:29:14.132Z,8.65
2022-12-23T04:31:49.087Z,9.15
2022-12-23T04:34:21.021Z,8.84
2022-12-23T04:36:53.351Z,8.64
2022-12-23T04:39:25.373Z,8.74
2022-12-23T04:41:57.637Z,8.76
2022-12-23T04:44:29.699Z,8.64
2022-12-23T04:47:04.841Z,9.00
2022-12-23T04:49:36.733Z,9.16
2022-12-23T04:52:09.167Z,8.95
2022-12-23T04:54:46.011Z,9.08
2022-12-23T04:57:41.496Z,9.01
2022-12-23T05:00:14.779Z,9.00
2022-12-23T05:02:49.903Z,8.92
2022-12-23T05:05:21.779Z,8.96
2022-12-23T05:07:54.828Z,8.86
2022-12-23T05:10:26.935Z,8.93
2022-12-23T05:12:59.471Z,8.91
2022-12-23T05:15:33.385Z,8.83
2022-12-23T05:18:08.568Z,9.34
2022-12-23T05:20:40.626Z,9.03
2022-12-23T05:23:13.176Z,8.74
2022-12-23T05:25:45.057Z,9.31
2022-12-23T05:28:17.111Z,9.18
2022-12-23T05:30:49.272Z,9.05
2022-12-23T05:33:24.152Z,9.26
2022-12-23T05:35:56.154Z,9.07
2022-12-23T05:38:29.757Z,9.39
2022-12-23T05:41:01.878Z,8.94
2022-12-23T05:43:34.180Z,9.07
2022-12-23T05:46:06.136Z,9.37
2022-12-23T05:48:41.097Z,9.41
2022-12-23T05:51:12.867Z,9.10
2022-12-23T05:53:59.102Z,9.18
2022-12-23T05:56:31.055Z,9.12
2022-12-23T05:59:03.221Z,9.14
2022-12-23T06:01:35.220Z,8.83
2022-12-23T06:04:10.432Z,9.28
2022-12-23T06:06:42.249Z,9.44
2022-12-23T06:09:14.740Z,9.37
2022-12-23T06:11:49.535Z,9.15
2022-12-23T06:14:26.829Z,9.37
2022-12-23T06:17:00.826Z,9.43
2022-12-23T06:19:35.818Z,9.56
2022-12-23T06:22:07.657Z,9.44
2022-12-23T06:24:40.269Z,9.48
2022-12-23T06:27:14.177Z,9.69
2022-12-23T06:29:46.509Z,9.39
2022-12-23T06:32:18.295Z,9.38
2022-12-23T06:34:55.678Z,9.41
2022-12-23T06:37:27.549Z,9.88
2022-12-23T06:39:59.847Z,9.72
2022-12-23T06:42:31.797Z,9.42
2022-12-23T06:45:03.997Z,9.63
2022-12-23T06:47:35.999Z,9.58
2022-12-23T06:50:12.139Z,9.64
2022-12-23T06:52:44.696Z,9.61
2022-12-23T06:55:16.926Z,9.33
2022-12-23T06:57:48.893Z,9.65
2022-12-23T07:00:21.795Z,9.40
2022-12-23T07:02:53.678Z,9.29
2022-12-23T07:05:35.031Z,9.20
2022-12-23T07:08:11.256Z,8.98
2022-12-23T07:10:43.705Z,8.92
2022-12-23T07:13:15.716Z,9.03
2022-12-23T07:15:48.356Z,8.51
2022-12-23T07:18:20.697Z,8.32
2022-12-23T07:20:56.276Z,8.92
2022-12-23T07:23:28.465Z,9.00
2022-12-23T07:26:01.313Z,8.85
2022-12-23T07:28:33.626Z,8.20
2022-12-23T07:31:08.859Z,8.69
2022-12-23T07:33:41.230Z,8.30
2022-12-23T07:36:16.785Z,8.16
2022-12-23T07:38:52.149Z,8.09
2022-12-23T07:41:25.085Z,8.09
2022-12-23T07:43:57.243Z,8.01
2022-12-23T07:46:30.080Z,8.46
2022-12-23T07:49:02.708Z,8.67
2022-12-23T07:51:37.927Z,8.69
2022-12-23T07:54:10.347Z,8.79
2022-12-23T07:56:43.034Z,8.29
2022-12-23T07:59:15.506Z,8.05
2022-12-23T08:01:48.241Z,8.46
2022-12-23T08:04:20.900Z,9.02
2022-12-23T08:06:56.386Z,8.54
2022-12-23T08:09:28.947Z,8.51
2022-12-23T08:12:01.713Z,8.71
2022-12-23T08:14:33.996Z,8.82
2022-12-23T08:17:06.811Z,9.12
2022-12-23T08:19:39.287Z,9.19
2022-12-23T08:22:14.509Z,9.33
2022-12-23T08:24:46.905Z,9.33
2022-12-23T08:27:19.939Z,9.25
2022-12-23T08:29:52.144Z,8.99
2022-12-23T08:32:24.881Z,8.87
2022-12-23T08:34:59.109Z,8.84
2022-12-23T08:37:34.645Z,9.03
2022-12-23T08:40:08.019Z,8.99
2022-12-23T08:42:40.953Z,9.07
2022-12-23T08:45:13.919Z,9.38
2022-12-23T08:47:46.777Z,9.38
2022-12-23T08:50:19.504Z,9.58
2022-12-23T08:52:54.939Z,9.55
2022-12-23T08:55:27.324Z,9.93
2022-12-23T08:58:00.030Z,9.71
2022-12-23T09:00:32.264Z,9.44
2022-12-23T09:03:05.479Z,9.05
2022-12-23T09:05:43.380Z,8.51
2022-12-23T09:08:18.566Z,8.57
2022-12-23T09:10:51.061Z,8.63
2022-12-23T09:13:32.743Z,8.37
2022-12-23T09:16:06.981Z,8.82
2022-12-23T09:18:40.262Z,9.30
2022-12-23T09:21:15.689Z,8.76
2022-12-23T09:23:50.920Z,8.62
2022-12-23T09:26:28.088Z,8.24
2022-12-23T09:29:01.265Z,8.07
2022-12-23T09:31:37.150Z,8.29
2022-12-23T09:34:10.433Z,8.57
2022-12-23T09:36:42.321Z,8.39
2022-12-23T09:39:17.264Z,8.86
2022-12-23T09:42:09.383Z,8.59
2022-12-23T09:44:53.400Z,8.92
2022-12-23T09:47:29.821Z,9.03
2022-12-23T09:50:06.479Z,9.61
2022-12-23T09:52:46.872Z,8.73
2022-12-23T09:55:25.900Z,8.93
2022-12-23T09:58:01.960Z,9.27
2022-12-23T10:00:42.576Z,9.25
2022-12-23T10:03:24.003Z,9.99
2022-12-23T10:06:06.067Z,9.97
2022-12-23T10:08:41.507Z,9.90
2022-12-23T10:11:20.389Z,9.46
2022-12-23T10:13:53.702Z,8.81
2022-12-23T10:16:31.046Z,8.11
2022-12-23T10:19:06.118Z,8.26
2022-12-23T10:21:47.470Z,8.55
2022-12-23T10:24:25.660Z,9.23
2022-12-23T10:27:04.604Z,9.83
2022-12-23T10:29:37.626Z,9.55
2022-12-23T10:32:23.265Z,9.70
2022-12-23T10:35:00.764Z,10.01
2022-12-23T10:37:42.286Z,9.93
2022-12-23T10:40:21.261Z,9.61
2022-12-23T10:43:06.275Z,9.75
2022-12-23T10:45:51.561Z,10.33
2022-12-23T10:48:40.348Z,9.95
2022-12-23T10:51:20.783Z,9.87
2022-12-23T10:53:56.014Z,10.04
2022-12-23T10:56:27.922Z,10.46
2022-12-23T10:59:04.504Z,10.33
2022-12-23T11:01:37.748Z,10.27
2022-12-23T11:04:12.714Z,10.59
2022-12-23T11:06:52.849Z,10.68
2022-12-23T11:09:41.740Z,10.94
2022-12-23T11:12:16.492Z,10.66
2022-12-23T11:14:55.600Z,10.57
2022-12-23T11:17:29.735Z,10.90
2022-12-23T11:20:15.713Z,10.24
2022-12-23T11:22:52.548Z,9.75
2022-12-23T11:25:34.820Z,10.14
2022-12-23T11:28:11.776Z,10.09
2022-12-23T11:30:59.151Z,9.91
2022-12-23T11:33:33.826Z,10.18
2022-12-23T11:36:10.238Z,10.08
2022-12-23T11:38:53.585Z,9.96
2022-12-23T11:41:30.257Z,10.05
2022-12-23T11:44:05.179Z,10.40
2022-12-23T11:46:40.575Z,10.18
2022-12-23T11:49:23.253Z,10.23
2022-12-23T11:52:05.522Z,10.22
2022-12-23T11:54:37.787Z,10.28
2022-12-23T11:57:18.689Z,9.84
2022-12-23T11:59:53.581Z,9.81
2022-12-23T12:02:37.381Z,9.64
2022-12-23T12:05:23.174Z,8.84
2022-12-23T12:07:56.386Z,8.54
2022-12-23T12:10:31.861Z,8.73
2022-12-23T12:13:08.510Z,8.61
2022-12-23T12:15:47.971Z,9.16
2022-12-23T12:18:25.438Z,9.50
2022-12-23T12:21:01.966Z,9.43
2022-12-23T12:23:45.161Z,9.70
2022-12-23T12:26:23.846Z,9.49
2022-12-23T12:29:04.287Z,9.52
2022-12-23T12:31:43.098Z,9.61
2022-12-23T12:34:34.767Z,10.15
2022-12-23T12:37:14.160Z,9.76
2022-12-23T12:39:52.856Z,9.33
2022-12-23T12:42:32.751Z,9.71
2022-12-23T12:45:16.751Z,9.37
2022-12-23T12:48:07.011Z,8.48
2022-12-23T12:51:01.557Z,8.56
2022-12-23T12:53:35.899Z,9.23
2022-12-23T12:56:16.414Z,9.39
2022-12-23T12:58:48.736Z,9.70
2022-12-23T13:01:36.444Z,9.71
2022-12-23T13:04:25.990Z,10.10
2022-12-23T13:07:10.411Z,10.11
2022-12-23T13:09:53.470Z,10.44
2022-12-23T13:12:35.880Z,9.35
2022-12-23T13:15:20.074Z,9.13
2022-12-23T13:18:06.338Z,9.56
2022-12-23T13:20:46.231Z,9.86
2022-12-23T13:26:34.079Z,10.07
2022-12-23T13:29:34.749Z,10.12
2022-12-23T13:32:18.917Z,9.60
2022-12-23T13:35:02.354Z,9.12
2022-12-23T13:37:43.032Z,9.75
2022-12-23T13:40:33.270Z,9.73
2022-12-23T13:43:10.411Z,9.98
2022-12-23T13:45:45.236Z,10.03
2022-12-23T13:48:37.410Z,10.11
2022-12-23T13:51:16.431Z,9.74
2022-12-23T13:54:04.837Z,9.85
2022-12-23T13:56:46.218Z,9.67
2022-12-23T13:59:20.274Z,9.79
2022-12-23T14:01:54.966Z,9.30
2022-12-23T14:04:37.387Z,9.29
2022-12-23T14:07:22.874Z,9.47
2022-12-23T14:09:58.890Z,10.11
2022-12-23T14:12:39.561Z,10.12
2022-12-23T14:15:36.657Z,9.90
2022-12-23T14:18:22.333Z,9.77
2022-12-23T14:21:00.374Z,9.65
2022-12-23T14:23:50.860Z,9.71
2022-12-23T14:26:37.372Z,9.32
2022-12-23T14:29:31.105Z,9.47
2022-12-23T14:32:03.061Z,9.78
2022-12-23T14:34:37.272Z,9.56
2022-12-23T14:37:32.656Z,9.67
2022-12-23T14:40:34.598Z,9.36
2022-12-23T14:43:35.652Z,9.42
2022-12-23T14:46:45.692Z,9.44
2022-12-23T14:49:41.241Z,9.43
2022-12-23T14:52:55.756Z,9.22
2022-12-23T14:55:47.655Z,9.52
2022-12-23T14:58:50.795Z,9.37
2022-12-23T15:01:34.151Z,9.48
2022-12-23T15:04:17.475Z,9.40
2022-12-23T15:06:52.617Z,9.29
2022-12-23T15:09:29.133Z,9.38
2022-12-23T15:12:03.446Z,9.35
2022-12-23T15:14:39.121Z,9.54
2022-12-23T15:17:32.890Z,9.33
2022-12-23T15:20:17.075Z,9.34
2022-12-23T15:22:50.285Z,9.68
2022-12-23T15:25:25.403Z,9.70
2022-12-23T15:28:01.885Z,9.68
2022-12-23T15:30:38.998Z,9.58
2022-12-23T15:33:51.840Z,9.48
2022-12-23T15:36:13.935Z,9.77
2022-12-23T15:38:45.952Z,9.52
2022-12-23T15:41:22.833Z,9.62
2022-12-23T15:43:55.292Z,9.48
2022-12-23T15:46:30.455Z,9.39
2022-12-23T15:49:06.080Z,9.39
2022-12-23T15:54:37.101Z,9.11
2022-12-23T15:57:09.605Z,9.01
2022-12-23T15:59:42.484Z,8.79
2022-12-23T16:02:58.880Z,8.99
2022-12-23T16:05:29.630Z,9.22
2022-12-23T16:08:29.197Z,9.26
2022-12-23T16:11:44.559Z,9.45
2022-12-23T16:14:35.193Z,9.72
2022-12-23T16:17:18.602Z,9.58
2022-12-23T16:19:52.316Z,9.57
2022-12-23T16:22:31.555Z,9.69
2022-12-23T16:25:31.746Z,9.45
2022-12-23T16:28:08.143Z,9.73
2022-12-23T16:30:43.494Z,9.78
2022-12-23T16:33:40.094Z,9.63
2022-12-23T16:36:20.901Z,9.67
2022-12-23T16:39:03.914Z,9.55
2022-12-23T16:41:36.651Z,9.53
2022-12-23T16:44:09.581Z,9.65
2022-12-23T16:46:46.075Z,9.70
2022-12-23T16:49:20.984Z,9.80
2022-12-23T16:51:53.673Z,9.79
2022-12-23T16:54:28.418Z,9.62
2022-12-23T16:57:00.921Z,9.65
2022-12-23T16:59:32.891Z,9.70
2022-12-23T17:02:05.191Z,9.75
2022-12-23T17:04:37.049Z,9.70
2022-12-23T17:07:12.618Z,9.57
2022-12-23T17:09:47.293Z,9.83
2022-12-23T17:12:19.895Z,9.58
2022-12-23T17:14:51.894Z,9.48
2022-12-23T17:17:26.193Z,9.45
2022-12-23T17:19:59.257Z,9.78
2022-12-23T17:22:31.958Z,9.80
2022-12-23T17:25:07.036Z,10.02
2022-12-23T17:27:39.521Z,9.66
2022-12-23T17:30:18.034Z,9.76
2022-12-23T17:32:54.736Z,9.41
2022-12-23T17:35:26.783Z,9.51
2022-12-23T17:37:58.972Z,9.43
2022-12-23T17:40:33.636Z,9.47
2022-12-23T17:43:05.993Z,9.58
2022-12-23T17:45:37.725Z,9.54
2022-12-23T17:48:17.957Z,9.65
2022-12-23T17:50:52.736Z,9.99
2022-12-23T17:53:25.148Z,9.97
2022-12-23T17:55:59.831Z,9.98
2022-12-23T17:58:32.062Z,9.78
2022-12-23T18:01:04.046Z,9.55
2022-12-23T18:03:36.422Z,9.25
2022-12-23T18:06:14.817Z,9.20
2022-12-23T18:08:47.023Z,9.09
2022-12-23T18:11:26.121Z,8.89
2022-12-23T18:13:58.579Z,8.91
2022-12-23T18:16:30.741Z,8.86
2022-12-23T18:19:03.011Z,9.02
2022-12-23T18:21:36.154Z,9.14
2022-12-23T18:24:09.769Z,9.36
2022-12-23T18:26:44.413Z,9.40
2022-12-23T18:29:31.124Z,9.11
2022-12-23T18:32:03.985Z,9.02
2022-12-23T18:34:36.312Z,8.98
2022-12-23T18:37:08.354Z,9.04
2022-12-23T18:39:40.851Z,9.39
2022-12-23T18:42:19.293Z,9.18
2022-12-23T18:44:52.179Z,9.13
2022-12-23T18:47:24.662Z,9.03
2022-12-23T18:49:57.159Z,9.26
2022-12-23T18:52:29.613Z,9.43
2022-12-23T18:55:01.960Z,9.27
2022-12-23T18:57:36.898Z,9.23
2022-12-23T19:00:14.887Z,9.20
2022-12-23T19:02:47.849Z,9.38
2022-12-23T19:05:24.491Z,9.45
2022-12-23T19:07:58.311Z,9.09
2022-12-23T19:10:33.691Z,9.35
2022-12-23T19:13:08.412Z,9.19
2022-12-23T19:15:40.742Z,9.37
2022-12-23T19:18:17.481Z,9.56
2022-12-23T19:20:51.154Z,8.98
2022-12-23T19:23:24.870Z,9.08
2022-12-23T19:25:57.135Z,9.42
2022-12-23T19:28:31.801Z,9.03
2022-12-23T19:31:04.073Z,8.97
2022-12-23T19:33:36.052Z,9.19
2022-12-23T19:36:13.124Z,9.16
2022-12-23T19:38:45.597Z,8.85
2022-12-23T19:41:18.136Z,8.82
2022-12-23T19:43:52.933Z,8.69
2022-12-23T19:46:25.402Z,8.60
2022-12-23T19:48:57.591Z,8.65
2022-12-23T19:51:30.078Z,8.55
2022-12-23T19:54:02.063Z,8.96
2022-12-23T19:56:35.731Z,8.46
2022-12-23T19:59:10.360Z,8.56
2022-12-23T20:01:42.685Z,8.42
2022-12-23T20:04:15.883Z,8.37
2022-12-23T20:06:48.435Z,8.50
2022-12-23T20:09:20.815Z,8.18
2022-12-23T20:11:53.183Z,8.29
2022-12-23T20:14:32.268Z,8.39
2022-12-23T20:17:07.037Z,8.22
2022-12-23T20:19:45.635Z,8.32
2022-12-23T20:22:18.696Z,8.13
2022-12-23T20:24:51.439Z,8.15
2022-12-23T20:27:27.860Z,8.22
2022-12-23T20:30:03.382Z,8.46
2022-12-23T20:32:35.813Z,8.15
2022-12-23T21:42:04.769Z,8.09
2022-12-23T21:47:28.534Z,7.89
2022-12-23T21:50:04.005Z,7.89
2022-12-23T21:52:54.917Z,7.91
2022-12-23T21:55:30.331Z,7.76
2022-12-23T21:58:31.337Z,7.43
2022-12-23T22:01:30.227Z,7.38
2022-12-23T22:04:07.971Z,7.24
2022-12-23T22:06:55.831Z,7.26
2022-12-23T22:09:31.004Z,7.12
2022-12-23T22:12:06.470Z,7.25
2022-12-23T22:15:33.437Z,7.27
2022-12-23T22:18:50.563Z,7.29
2022-12-23T22:21:41.463Z,7.27
2022-12-23T22:24:17.186Z,7.23
2022-12-23T22:27:01.493Z,7.27
2022-12-23T22:29:54.393Z,7.40
2022-12-23T22:32:28.844Z,7.33
2022-12-23T22:35:01.168Z,7.47
2022-12-23T22:37:33.135Z,7.03
2022-12-23T22:40:05.548Z,6.94
2022-12-23T22:42:37.349Z,7.07
2022-12-23T22:45:13.605Z,7.00
2022-12-23T22:47:51.379Z,6.98
2022-12-23T22:50:24.417Z,7.06
2022-12-23T22:52:56.322Z,7.07
2022-12-23T22:55:28.911Z,6.82
2022-12-23T22:58:00.891Z,6.90
2022-12-23T23:00:33.592Z,7.14
2022-12-23T23:03:08.599Z,7.06
2022-12-23T23:05:41.195Z,7.06
2022-12-23T23:08:14.951Z,7.04
2022-12-23T23:10:47.411Z,7.09
2022-12-23T23:13:19.494Z,7.33
2022-12-23T23:15:52.389Z,7.58
2022-12-23T23:18:27.685Z,7.71
2022-12-23T23:21:00.447Z,7.51
2022-12-23T23:23:32.738Z,7.31
2022-12-23T23:26:05.448Z,7.17
2022-12-23T23:28:37.740Z,7.21
2022-12-23T23:34:06.590Z,7.01
2022-12-23T23:36:39.128Z,6.72
2022-12-23T23:39:11.160Z,7.08
2022-12-23T23:41:44.196Z,7.06
2022-12-23T23:44:16.300Z,6.81
2022-12-23T23:46:49.042Z,7.12
2022-12-23T23:49:25.309Z,7.38
2022-12-23T23:51:57.653Z,7.45
2022-12-23T23:54:30.035Z,7.20
2022-12-23T23:57:02.730Z,7.48
2022-12-23T23:59:34.949Z,7.26
